Savage Guardian — WDG6079 — position and weather

sailwx.info

Track history (hours):
 
Tides and Currents Weather Stations Pressure Air Temp Water Temp Dewpoint Dewpoint Depression Visibility Wind Speed Wind Dir Waves Ship Positions

Savage Guardian

Owner: Savage Inland Marine, Gibson, LA. More information available from US FCC via Universal Licensing System and Coast Guard Vessel Documentation Center.

Last reported at 2017-Dec-11 14:47 UTC. Time now 2017-Dec-12 21:58 UTC.
Position N 29°36' W 090°22'.

Length 22 m; draft 3 m.

Type: Tug. MMSI: 367553290.

Date/timePositionNaut miles runAvg speedWind from/ knotsBaromVisibWave heightAir tempDewpointWater temp
2017-Dec-11 14:47N 29°36' W 090°22'1 4.5
2017-Dec-11 14:30N 29°37' W 090°21'  
2017-Dec-08 16:30N 29°33' W 090°25'3 6.2
2017-Dec-08 16:00N 29°33' W 090°28'3 6.4
2017-Dec-08 15:30N 29°34' W 090°32'3 5.2
2017-Dec-08 15:00N 29°35' W 090°35'3 5.9
2017-Dec-08 14:30N 29°35' W 090°38'3 5.0
2017-Dec-08 14:00N 29°36' W 090°41'0 0.0
2017-Dec-08 13:30N 29°36' W 090°41'0 0.0
2017-Dec-08 13:00N 29°36' W 090°41'0 0.0
2017-Dec-08 12:30N 29°36' W 090°41'0 0.0
2017-Dec-08 12:00N 29°36' W 090°41'0 0.0
2017-Dec-08 11:30N 29°36' W 090°41'0 0.0
2017-Dec-08 11:00N 29°36' W 090°41'0 0.0
2017-Dec-08 10:30N 29°36' W 090°41'0 0.0
2017-Dec-08 10:00N 29°36' W 090°41'0 0.0
2017-Dec-08 09:30N 29°36' W 090°41'0 0.0
2017-Dec-08 09:00N 29°36' W 090°41'0 0.0
2017-Dec-08 08:30N 29°36' W 090°41'0 0.0
2017-Dec-08 08:00N 29°36' W 090°41'0 0.0
2017-Dec-08 07:30N 29°36' W 090°41'0 0.0
2017-Dec-08 07:00N 29°36' W 090°41'0 0.0
2017-Dec-08 06:30N 29°36' W 090°41'0 0.0
2017-Dec-08 06:01N 29°36' W 090°41'0 0.0
2017-Dec-08 05:30N 29°36' W 090°41'0 0.0
2017-Dec-08 05:00N 29°36' W 090°41'0 0.0
2017-Dec-08 04:30N 29°36' W 090°41'0 0.0
2017-Dec-08 04:00N 29°36' W 090°41'0 0.0
2017-Dec-08 03:30N 29°36' W 090°41'0 0.0
2017-Dec-08 03:00N 29°36' W 090°41'0 0.0
2017-Dec-08 02:30N 29°36' W 090°41'0 0.0
2017-Dec-08 02:00N 29°36' W 090°41'0 0.0
2017-Dec-08 01:30N 29°36' W 090°41'0 0.0
2017-Dec-08 01:00N 29°36' W 090°41'0 0.0
2017-Dec-08 00:31N 29°36' W 090°41'0 0.0
2017-Dec-08 00:00N 29°36' W 090°41'0 0.0
2017-Dec-07 23:30N 29°36' W 090°41'0 0.0
2017-Dec-07 23:00N 29°36' W 090°41'0 0.0
2017-Dec-07 22:30N 29°36' W 090°41'1 2.8
2017-Dec-07 22:00N 29°37' W 090°42'2 4.5
2017-Dec-07 21:30N 29°34' W 090°43'2 3.8
2017-Dec-07 21:00N 29°34' W 090°45'1 2.8
2017-Dec-07 20:30N 29°32' W 090°46'0 0.0
2017-Dec-07 20:00N 29°32' W 090°46'2 4.7
2017-Dec-07 19:30N 29°32' W 090°48'  
2017-Dec-04 10:30N 30°05' W 093°20'2 4.0
2017-Dec-04 10:00N 30°07' W 093°20'1 3.0
2017-Dec-04 09:30N 30°08' W 093°19'0 0.0
2017-Dec-04 09:00N 30°08' W 093°19'0 0.0
2017-Dec-04 08:30N 30°08' W 093°19'0 0.0
2017-Dec-04 08:00N 30°08' W 093°19'0 0.0
2017-Dec-04 07:30N 30°08' W 093°19'0 0.0
2017-Dec-04 07:00N 30°08' W 093°19'0 0.0
2017-Dec-04 06:30N 30°08' W 093°19'0 0.0
2017-Dec-04 06:00N 30°08' W 093°19'0 0.0
2017-Dec-04 05:30N 30°08' W 093°19'0 0.0
2017-Dec-04 05:00N 30°08' W 093°19'0 0.0
2017-Dec-04 04:30N 30°08' W 093°19'0 0.0
2017-Dec-04 04:00N 30°08' W 093°19'0 0.0
2017-Dec-04 03:30N 30°08' W 093°19'0 0.0
2017-Dec-04 03:00N 30°08' W 093°19'0 0.0
2017-Dec-04 02:30N 30°08' W 093°19'0 0.0
2017-Dec-04 02:00N 30°08' W 093°19'0 0.0
2017-Dec-04 01:30N 30°08' W 093°19'0 0.0
2017-Dec-04 01:00N 30°08' W 093°19'0 0.0
2017-Dec-04 00:30N 30°08' W 093°19'0 0.6
2017-Dec-03 23:59N 30°08' W 093°20'3 4.8
2017-Dec-03 23:27N 30°05' W 093°20'1 2.2
2017-Dec-03 22:56N 30°05' W 093°20'1 1.3
2017-Dec-03 22:30N 30°04' W 093°21'0 0.5
2017-Dec-03 22:00N 30°04' W 093°21'1 2.1
2017-Dec-03 21:30N 30°05' W 093°20'2 4.6
2017-Dec-03 21:00N 30°07' W 093°20'1 1.7
2017-Dec-03 20:30N 30°08' W 093°19'0 0.0
2017-Dec-03 20:00N 30°08' W 093°19'0 0.0
2017-Dec-03 19:30N 30°08' W 093°19'0 0.0
2017-Dec-03 19:00N 30°08' W 093°19'0 0.0
2017-Dec-03 18:30N 30°08' W 093°19'0 0.0
2017-Dec-03 18:00N 30°08' W 093°19'0 0.0
2017-Dec-03 17:30N 30°08' W 093°19'0 0.0
2017-Dec-03 17:00N 30°08' W 093°19'0 0.0
2017-Dec-03 16:30N 30°08' W 093°19'0 0.0
2017-Dec-03 16:00N 30°08' W 093°19'0 0.0
2017-Dec-03 15:30N 30°08' W 093°19'0 0.0
2017-Dec-03 15:00N 30°08' W 093°19'0 0.0
2017-Dec-03 14:26N 30°08' W 093°19'0 0.0
2017-Dec-03 13:58N 30°08' W 093°19'0 0.0
2017-Dec-03 13:16N 30°08' W 093°19'0 0.0
2017-Dec-03 12:58N 30°08' W 093°19'0 0.0
2017-Dec-03 12:29N 30°08' W 093°19'0 0.0
2017-Dec-03 12:00N 30°08' W 093°19'0 0.0
2017-Dec-03 11:30N 30°08' W 093°19'0 0.0
2017-Dec-03 10:54N 30°08' W 093°19'0 0.0
2017-Dec-03 10:30N 30°08' W 093°19'0 0.0
2017-Dec-03 10:00N 30°08' W 093°19'0 0.1
2017-Dec-03 09:30N 30°08' W 093°19'0 0.0
2017-Dec-03 08:57N 30°08' W 093°19'0 0.0
2017-Dec-03 08:30N 30°08' W 093°19'0 0.0
2017-Dec-03 08:00N 30°08' W 093°19'0 0.0
2017-Dec-03 07:30N 30°08' W 093°19'0 0.0
2017-Dec-03 06:51N 30°08' W 093°19'0 0.0
2017-Dec-03 06:30N 30°08' W 093°19'0 0.0
2017-Dec-03 05:56N 30°08' W 093°19'0 0.0
2017-Dec-03 05:30N 30°08' W 093°19'0 0.0
2017-Dec-03 04:55N 30°08' W 093°19'0 0.0
2017-Dec-03 04:30N 30°08' W 093°19'0 0.0
2017-Dec-03 03:55N 30°08' W 093°19'0 0.0
2017-Dec-03 03:30N 30°08' W 093°19'0 0.0
2017-Dec-03 02:55N 30°08' W 093°19'0 0.0
2017-Dec-03 02:26N 30°08' W 093°19'0 0.0
2017-Dec-03 02:00N 30°08' W 093°19'0 0.0
2017-Dec-03 01:30N 30°08' W 093°19'0 0.0
2017-Dec-03 01:00N 30°08' W 093°19'0 0.1
2017-Dec-03 00:30N 30°08' W 093°19'2 3.0
2017-Dec-03 00:00N 30°07' W 093°20'1 3.0
2017-Dec-02 23:30N 30°05' W 093°20'0 0.5
2017-Dec-02 23:00N 30°05' W 093°20'0 0.1
2017-Dec-02 22:31N 30°05' W 093°20'0 0.0
2017-Dec-02 22:00N 30°05' W 093°20'0 0.0
2017-Dec-02 21:30N 30°05' W 093°20'0 0.0
2017-Dec-02 21:00N 30°05' W 093°20'0 0.0
2017-Dec-02 20:30N 30°05' W 093°20'0 0.0
2017-Dec-02 20:00N 30°05' W 093°20'0 0.0
2017-Dec-02 19:30N 30°05' W 093°20'0 0.0
2017-Dec-02 19:00N 30°05' W 093°20'0 0.0
2017-Dec-02 18:30N 30°05' W 093°20'0 0.0
2017-Dec-02 18:01N 30°05' W 093°20'0 0.0
2017-Dec-02 17:30N 30°05' W 093°20'0 0.0
2017-Dec-02 17:00N 30°05' W 093°20'0 0.2
2017-Dec-02 16:30N 30°05' W 093°20'1 2.4
2017-Dec-02 16:01N 30°06' W 093°19'1 1.5
2017-Dec-02 15:30N 30°06' W 093°18'0 0.9
2017-Dec-02 15:00N 30°05' W 093°18'1 1.4
2017-Dec-02 14:30N 30°05' W 093°17'2 3.6
2017-Dec-02 14:00N 30°04' W 093°16'2 3.4
2017-Dec-02 13:30N 30°02' W 093°15'2 3.6
2017-Dec-02 13:00N 30°01' W 093°14'1 2.5
2017-Dec-02 12:30N 29°60' W 093°13'0 0.0
2017-Dec-02 12:00N 29°60' W 093°13'0 0.1
2017-Dec-02 11:30N 29°60' W 093°13'2 4.4
2017-Dec-02 11:00N 29°58' W 093°11'2 4.5
2017-Dec-02 10:27N 29°56' W 093°10'2 4.4
2017-Dec-02 10:00N 29°56' W 093°07'37 4.0
2017-Dec-02 00:43N 29°53' W 092°24'2 4.3
2017-Dec-02 00:19N 29°52' W 092°23'1 4.2
2017-Dec-01 23:59N 29°51' W 092°22'2 3.4
2017-Dec-01 23:30N 29°51' W 092°20'2 4.2
2017-Dec-01 23:00N 29°50' W 092°18'2 4.6
2017-Dec-01 22:30N 29°48' W 092°16'2 4.8
2017-Dec-01 22:00N 29°47' W 092°13'2 3.7
2017-Dec-01 21:30N 29°47' W 092°11'0 0.0
2017-Dec-01 21:00N 29°47' W 092°11'0 0.5
2017-Dec-01 20:30N 29°47' W 092°11'2 3.3
2017-Dec-01 20:00N 29°47' W 092°09'2 4.3
2017-Dec-01 19:30N 29°48' W 092°07'  
Track history (hours):
 
Tides and Currents Weather Stations Pressure Air Temp Water Temp Dewpoint Dewpoint Depression Visibility Wind Speed Wind Dir Waves Ship Positions

Savage Guardian

Owner: Savage Inland Marine, Gibson, LA. More information available from US FCC via Universal Licensing System and Coast Guard Vessel Documentation Center.

Last reported at 2017-Dec-11 14:47 UTC. Time now 2017-Dec-12 21:58 UTC.
Position N 29°36' W 090°22'.

Length 22 m; draft 3 m.

Type: Tug. MMSI: 367553290.

Date/timePositionNaut miles runAvg speedWind from/ knotsBaromVisibWave heightAir tempDewpointWater temp
2017-Dec-11 14:47N 29°36' W 090°22'1 4.5
2017-Dec-11 14:30N 29°37' W 090°21'  
2017-Dec-08 16:30N 29°33' W 090°25'3 6.2
2017-Dec-08 16:00N 29°33' W 090°28'3 6.4
2017-Dec-08 15:30N 29°34' W 090°32'3 5.2
2017-Dec-08 15:00N 29°35' W 090°35'3 5.9
2017-Dec-08 14:30N 29°35' W 090°38'3 5.0
2017-Dec-08 14:00N 29°36' W 090°41'0 0.0
2017-Dec-08 13:30N 29°36' W 090°41'0 0.0
2017-Dec-08 13:00N 29°36' W 090°41'0 0.0
2017-Dec-08 12:30N 29°36' W 090°41'0 0.0
2017-Dec-08 12:00N 29°36' W 090°41'0 0.0
2017-Dec-08 11:30N 29°36' W 090°41'0 0.0
2017-Dec-08 11:00N 29°36' W 090°41'0 0.0
2017-Dec-08 10:30N 29°36' W 090°41'0 0.0
2017-Dec-08 10:00N 29°36' W 090°41'0 0.0
2017-Dec-08 09:30N 29°36' W 090°41'0 0.0
2017-Dec-08 09:00N 29°36' W 090°41'0 0.0
2017-Dec-08 08:30N 29°36' W 090°41'0 0.0
2017-Dec-08 08:00N 29°36' W 090°41'0 0.0
2017-Dec-08 07:30N 29°36' W 090°41'0 0.0
2017-Dec-08 07:00N 29°36' W 090°41'0 0.0
2017-Dec-08 06:30N 29°36' W 090°41'0 0.0
2017-Dec-08 06:01N 29°36' W 090°41'0 0.0
2017-Dec-08 05:30N 29°36' W 090°41'0 0.0
2017-Dec-08 05:00N 29°36' W 090°41'0 0.0
2017-Dec-08 04:30N 29°36' W 090°41'0 0.0
2017-Dec-08 04:00N 29°36' W 090°41'0 0.0
2017-Dec-08 03:30N 29°36' W 090°41'0 0.0
2017-Dec-08 03:00N 29°36' W 090°41'0 0.0
2017-Dec-08 02:30N 29°36' W 090°41'0 0.0
2017-Dec-08 02:00N 29°36' W 090°41'0 0.0
2017-Dec-08 01:30N 29°36' W 090°41'0 0.0
2017-Dec-08 01:00N 29°36' W 090°41'0 0.0
2017-Dec-08 00:31N 29°36' W 090°41'0 0.0
2017-Dec-08 00:00N 29°36' W 090°41'0 0.0
2017-Dec-07 23:30N 29°36' W 090°41'0 0.0
2017-Dec-07 23:00N 29°36' W 090°41'0 0.0
2017-Dec-07 22:30N 29°36' W 090°41'1 2.8
2017-Dec-07 22:00N 29°37' W 090°42'2 4.5
2017-Dec-07 21:30N 29°34' W 090°43'2 3.8
2017-Dec-07 21:00N 29°34' W 090°45'1 2.8
2017-Dec-07 20:30N 29°32' W 090°46'0 0.0
2017-Dec-07 20:00N 29°32' W 090°46'2 4.7
2017-Dec-07 19:30N 29°32' W 090°48'  
2017-Dec-04 10:30N 30°05' W 093°20'2 4.0
2017-Dec-04 10:00N 30°07' W 093°20'1 3.0
2017-Dec-04 09:30N 30°08' W 093°19'0 0.0
2017-Dec-04 09:00N 30°08' W 093°19'0 0.0
2017-Dec-04 08:30N 30°08' W 093°19'0 0.0
2017-Dec-04 08:00N 30°08' W 093°19'0 0.0
2017-Dec-04 07:30N 30°08' W 093°19'0 0.0
2017-Dec-04 07:00N 30°08' W 093°19'0 0.0
2017-Dec-04 06:30N 30°08' W 093°19'0 0.0
2017-Dec-04 06:00N 30°08' W 093°19'0 0.0
2017-Dec-04 05:30N 30°08' W 093°19'0 0.0
2017-Dec-04 05:00N 30°08' W 093°19'0 0.0
2017-Dec-04 04:30N 30°08' W 093°19'0 0.0
2017-Dec-04 04:00N 30°08' W 093°19'0 0.0
2017-Dec-04 03:30N 30°08' W 093°19'0 0.0
2017-Dec-04 03:00N 30°08' W 093°19'0 0.0
2017-Dec-04 02:30N 30°08' W 093°19'0 0.0
2017-Dec-04 02:00N 30°08' W 093°19'0 0.0
2017-Dec-04 01:30N 30°08' W 093°19'0 0.0
2017-Dec-04 01:00N 30°08' W 093°19'0 0.0
2017-Dec-04 00:30N 30°08' W 093°19'0 0.6
2017-Dec-03 23:59N 30°08' W 093°20'3 4.8
2017-Dec-03 23:27N 30°05' W 093°20'1 2.2
2017-Dec-03 22:56N 30°05' W 093°20'1 1.3
2017-Dec-03 22:30N 30°04' W 093°21'0 0.5
2017-Dec-03 22:00N 30°04' W 093°21'1 2.1
2017-Dec-03 21:30N 30°05' W 093°20'2 4.6
2017-Dec-03 21:00N 30°07' W 093°20'1 1.7
2017-Dec-03 20:30N 30°08' W 093°19'0 0.0
2017-Dec-03 20:00N 30°08' W 093°19'0 0.0
2017-Dec-03 19:30N 30°08' W 093°19'0 0.0
2017-Dec-03 19:00N 30°08' W 093°19'0 0.0
2017-Dec-03 18:30N 30°08' W 093°19'0 0.0
2017-Dec-03 18:00N 30°08' W 093°19'0 0.0
2017-Dec-03 17:30N 30°08' W 093°19'0 0.0
2017-Dec-03 17:00N 30°08' W 093°19'0 0.0
2017-Dec-03 16:30N 30°08' W 093°19'0 0.0
2017-Dec-03 16:00N 30°08' W 093°19'0 0.0
2017-Dec-03 15:30N 30°08' W 093°19'0 0.0
2017-Dec-03 15:00N 30°08' W 093°19'0 0.0
2017-Dec-03 14:26N 30°08' W 093°19'0 0.0
2017-Dec-03 13:58N 30°08' W 093°19'0 0.0
2017-Dec-03 13:16N 30°08' W 093°19'0 0.0
2017-Dec-03 12:58N 30°08' W 093°19'0 0.0
2017-Dec-03 12:29N 30°08' W 093°19'0 0.0
2017-Dec-03 12:00N 30°08' W 093°19'0 0.0
2017-Dec-03 11:30N 30°08' W 093°19'0 0.0
2017-Dec-03 10:54N 30°08' W 093°19'0 0.0
2017-Dec-03 10:30N 30°08' W 093°19'0 0.0
2017-Dec-03 10:00N 30°08' W 093°19'0 0.1
2017-Dec-03 09:30N 30°08' W 093°19'0 0.0
2017-Dec-03 08:57N 30°08' W 093°19'0 0.0
2017-Dec-03 08:30N 30°08' W 093°19'0 0.0
2017-Dec-03 08:00N 30°08' W 093°19'0 0.0
2017-Dec-03 07:30N 30°08' W 093°19'0 0.0
2017-Dec-03 06:51N 30°08' W 093°19'0 0.0
2017-Dec-03 06:30N 30°08' W 093°19'0 0.0
2017-Dec-03 05:56N 30°08' W 093°19'0 0.0
2017-Dec-03 05:30N 30°08' W 093°19'0 0.0
2017-Dec-03 04:55N 30°08' W 093°19'0 0.0
2017-Dec-03 04:30N 30°08' W 093°19'0 0.0
2017-Dec-03 03:55N 30°08' W 093°19'0 0.0
2017-Dec-03 03:30N 30°08' W 093°19'0 0.0
2017-Dec-03 02:55N 30°08' W 093°19'0 0.0
2017-Dec-03 02:26N 30°08' W 093°19'0 0.0
2017-Dec-03 02:00N 30°08' W 093°19'0 0.0
2017-Dec-03 01:30N 30°08' W 093°19'0 0.0
2017-Dec-03 01:00N 30°08' W 093°19'0 0.1
2017-Dec-03 00:30N 30°08' W 093°19'2 3.0
2017-Dec-03 00:00N 30°07' W 093°20'1 3.0
2017-Dec-02 23:30N 30°05' W 093°20'0 0.5
2017-Dec-02 23:00N 30°05' W 093°20'0 0.1
2017-Dec-02 22:31N 30°05' W 093°20'0 0.0
2017-Dec-02 22:00N 30°05' W 093°20'0 0.0
2017-Dec-02 21:30N 30°05' W 093°20'0 0.0
2017-Dec-02 21:00N 30°05' W 093°20'0 0.0
2017-Dec-02 20:30N 30°05' W 093°20'0 0.0
2017-Dec-02 20:00N 30°05' W 093°20'0 0.0
2017-Dec-02 19:30N 30°05' W 093°20'0 0.0
2017-Dec-02 19:00N 30°05' W 093°20'0 0.0
2017-Dec-02 18:30N 30°05' W 093°20'0 0.0
2017-Dec-02 18:01N 30°05' W 093°20'0 0.0
2017-Dec-02 17:30N 30°05' W 093°20'0 0.0
2017-Dec-02 17:00N 30°05' W 093°20'0 0.2
2017-Dec-02 16:30N 30°05' W 093°20'1 2.4
2017-Dec-02 16:01N 30°06' W 093°19'1 1.5
2017-Dec-02 15:30N 30°06' W 093°18'0 0.9
2017-Dec-02 15:00N 30°05' W 093°18'1 1.4
2017-Dec-02 14:30N 30°05' W 093°17'2 3.6
2017-Dec-02 14:00N 30°04' W 093°16'2 3.4
2017-Dec-02 13:30N 30°02' W 093°15'2 3.6
2017-Dec-02 13:00N 30°01' W 093°14'1 2.5
2017-Dec-02 12:30N 29°60' W 093°13'0 0.0
2017-Dec-02 12:00N 29°60' W 093°13'0 0.1
2017-Dec-02 11:30N 29°60' W 093°13'2 4.4
2017-Dec-02 11:00N 29°58' W 093°11'2 4.5
2017-Dec-02 10:27N 29°56' W 093°10'2 4.4
2017-Dec-02 10:00N 29°56' W 093°07'37 4.0
2017-Dec-02 00:43N 29°53' W 092°24'2 4.3
2017-Dec-02 00:19N 29°52' W 092°23'1 4.2
2017-Dec-01 23:59N 29°51' W 092°22'2 3.4
2017-Dec-01 23:30N 29°51' W 092°20'2 4.2
2017-Dec-01 23:00N 29°50' W 092°18'2 4.6
2017-Dec-01 22:30N 29°48' W 092°16'2 4.8
2017-Dec-01 22:00N 29°47' W 092°13'2 3.7
2017-Dec-01 21:30N 29°47' W 092°11'0 0.0
2017-Dec-01 21:00N 29°47' W 092°11'0 0.5
2017-Dec-01 20:30N 29°47' W 092°11'2 3.3
2017-Dec-01 20:00N 29°47' W 092°09'2 4.3
2017-Dec-01 19:30N 29°48' W 092°07'  

Dump ship's entire track history